York, Wisconsin
Current Conditions -  °F | °C
As of 3:54 AM on Wednesday 22 Oct 2014 (Local Time) from KMFI Reporting Station
Clear Clear  
Wind Chill: 29°   Ceiling: Unl
Heat Index: 33°   Visibility: 10mi
Dew Point: 31°   Wind: 5mph
Humidity: 92%   Direction: 110°ESE
Pressure: 30.29"   Gusts: NA
Location:  44.5388°N, 90.4382°W
Report Text: KMFI 220854Z AUTO 11004KT 10SM CLR 01/M01 A3029 RMK AO2 SLP267 I1000 I3000 T00061006 51004
Loading
Personal Weather Stations






























Interactive Weather Map New forecast layout! Learn more

10-Day Weather Forecast

Advertisements
Track Severe Weather on mobile